• Join FlightAware (Why Join?)
  • Login
  • US Flag 
01:09AM EDT


 

Airport Tracker/Info


-or-


 

Live Flight TrackerFlight Track Log ✈ FLG4208 ✈ 19-Apr-2013 ✈ KAZO - KDTW

Flight Track Log - Related Links

Times and Time Zones

All times are in EDT time to prevent confusion due to time zone crossing. See the FLG4208 flight status page for this flight to view local times or setup timezone preferences in your user account.

Time Position Orientation Groundspeed Altitude Reporting Facility
EDT Latitude Longitude Course Direction KTS MPH feet Rate Location/Type
12:36PM 42.1775 -85.4789 127° Southeast 196 226 3,400  Level Chicago Center
12:37PM 42.1592 -85.3800 104° East 261 300 5,900 2,760 Climbing Chicago Center
12:37PM 42.1522 -85.3144 98° East 238 274 7,500 3,120 Climbing Cleveland Center
12:38PM 42.1528 -85.1850 106° East  Level FlightAware Approximate
12:38PM 42.1319 -85.1981 103° East 282 325 10,400  Level Cleveland Center
12:39PM 42.1330 -85.0928 106° East  Level FlightAware Approximate
12:39PM 42.1122 -85.0650 101° East 323 372 11,800  Level Cleveland Center
12:40PM 42.1067 -85.0067 143° Southeast  Level FlightAware Approximate
12:40PM 42.0906 -84.9236 102° East 362 417 13,000  Level Cleveland Center
12:41PM 42.0700 -84.8017 103° East 388 447 13,000  Level Cleveland Center
12:42PM 42.0164 -84.6725 119° Southeast 388 447 13,000 -420 Level Cleveland Center
12:43PM 41.9594 -84.5683 126° Southeast 362 417 12,200 -540 Descending Cleveland Center
12:44PM 41.9044 -84.4700 127° Southeast 344 396 12,000 -120 Descending Cleveland Center
12:45PM 41.8494 -84.3661 125° Southeast 344 396 12,000  Level Cleveland Center
12:46PM 41.7864 -84.2539 127° Southeast 342 394 12,000 60 Level Cleveland Center
12:47PM 41.7847 -84.1786 92° East 376 433 12,100  Climbing Cleveland Center
12:47PM 41.7989 -84.1292 69° East 328 377 12,000  Descending Cleveland Center
12:48PM 41.8286 -84.0417 65° Northeast 409 471 12,100  Climbing Cleveland Center
12:48PM 41.8508 -83.9981 56° Northeast 347 399 12,000 -120 Descending Cleveland Center
12:49PM 41.8989 -83.9225 49° Northeast 414 476 12,000  Level Cleveland Center
12:49PM 41.9231 -83.8819 51° Northeast 364 419 12,000 60 Level Cleveland Center
12:50PM 41.9794 -83.8011 47° Northeast 411 473 12,100  Climbing Cleveland Center
12:50PM 42.0011 -83.7686 48° Northeast 389 448 12,000  Descending Cleveland Center
12:51PM 42.0597 -83.6847 47° Northeast 411 473 12,100  Climbing Cleveland Center
12:51PM 42.0750 -83.6606 50° Northeast 394 453 12,000 -120 Descending Cleveland Center
12:52PM 42.1289 -83.5986 40° Northeast 330 380 12,000 -120 Level Cleveland Center
12:52PM 42.1481 -83.5828 31° Northeast 362 417 11,900 -900 Descending Cleveland Center
12:53PM 42.2008 -83.5489 25° Northeast 278 320 11,100 -900 Descending Cleveland Center
12:53PM 42.2181 -83.5356 30° Northeast 326 375 11,000 -540 Descending Cleveland Center
12:54PM 42.2858 -83.4967 23° Northeast 280 322 10,500 -1,140 Descending Cleveland Center
12:55PM 42.3683 -83.4469 24° Northeast 278 320 8,800 -1,320 Descending Cleveland Center
12:56PM 42.4381 -83.4050 24° Northeast 276 318 7,800 -900 Descending Cleveland Center
12:57PM 42.4997 -83.3544 31° Northeast 264 304 7,100 -420 Descending Cleveland Center
12:58PM 42.5542 -83.3483 North 215 247 7,100 -300 Level Cleveland Center
12:59PM 42.6131 -83.3256 16° North 246 283 6,600 -780 Descending Cleveland Center
01:00PM 42.6044 -83.2517 99° East 210 242 5,600 -1,140 Descending Cleveland Center